createdAt,value
2018-04-12T11:04:50.496Z,90.00
2018-04-12T11:07:19.518Z,81.90
2018-04-12T11:09:47.771Z,81.90
2018-04-12T11:12:16.824Z,78.80
2018-04-12T11:14:45.049Z,78.70
2018-04-12T11:17:13.333Z,76.80
2018-04-12T11:19:41.577Z,78.70
2018-04-12T11:22:10.601Z,79.00
2018-04-12T11:24:38.850Z,78.30
2018-04-12T11:27:07.926Z,77.10
2018-04-12T11:29:36.130Z,77.10
2018-04-12T11:32:04.386Z,80.60
2018-04-12T11:34:32.684Z,78.30
2018-04-12T11:37:00.941Z,78.70
2018-04-12T11:39:29.141Z,77.60
2018-04-12T11:41:57.402Z,77.60
2018-04-12T11:44:26.422Z,76.50
2018-04-12T11:46:54.665Z,76.60
2018-04-12T11:49:23.697Z,81.10
2018-04-12T11:51:51.944Z,80.80
2018-04-12T11:54:20.964Z,83.30
2018-04-12T11:56:49.235Z,83.60
2018-04-12T11:59:17.474Z,84.00
2018-04-12T12:01:46.488Z,86.00
2018-04-12T12:04:14.753Z,85.90
2018-04-12T12:06:43.784Z,86.60
2018-04-12T12:09:12.040Z,87.80
2018-04-12T12:11:40.284Z,88.70
2018-04-12T12:14:09.301Z,88.50
2018-04-12T12:16:37.549Z,88.60
2018-04-12T12:19:06.566Z,89.40
2018-04-12T12:21:34.818Z,89.00
2018-04-12T12:24:03.074Z,84.20
2018-04-12T12:26:31.328Z,81.60
2018-04-12T12:28:59.581Z,86.40
2018-04-12T12:31:27.836Z,81.50
2018-04-12T12:33:56.849Z,72.10
2018-04-12T12:36:25.113Z,72.00
2018-04-12T12:38:53.365Z,73.10
2018-04-12T12:41:22.372Z,76.00
2018-04-12T12:43:51.400Z,77.30
2018-04-12T12:46:19.652Z,77.30
2018-04-12T12:48:47.908Z,77.40
2018-04-12T12:51:16.926Z,72.00
2018-04-12T12:53:45.184Z,72.10
2018-04-12T12:56:14.205Z,76.50
2018-04-12T12:58:42.464Z,76.50
2018-04-12T13:01:10.717Z,76.80
2018-04-12T13:03:39.786Z,76.40
2018-04-12T13:06:07.992Z,76.40
2018-04-12T13:08:37.004Z,73.40
2018-04-12T13:11:05.251Z,72.80
2018-04-12T13:13:33.509Z,69.50
2018-04-12T13:16:01.760Z,70.30
2018-04-12T13:18:30.009Z,68.20
2018-04-12T13:20:58.257Z,66.70
2018-04-12T13:23:27.298Z,65.40
2018-04-12T13:25:55.548Z,65.90
2018-04-12T13:28:23.801Z,67.70
2018-04-12T13:30:52.822Z,69.60
2018-04-12T13:33:21.071Z,69.60
2018-04-12T13:35:50.089Z,68.20
2018-04-12T13:38:18.336Z,68.20
2018-04-12T13:40:47.374Z,69.90
2018-04-12T13:43:15.626Z,69.80
2018-04-12T13:45:43.885Z,69.80
2018-04-12T13:48:12.898Z,72.50
2018-04-12T13:50:41.154Z,72.50
2018-04-12T13:53:10.165Z,71.30
2018-04-12T13:55:38.425Z,71.30
2018-04-12T13:58:07.448Z,73.10
2018-04-12T14:00:35.704Z,73.10
2018-04-12T14:03:03.949Z,73.30
2018-04-12T14:05:32.218Z,71.30
2018-04-12T14:08:00.460Z,69.90
2018-04-12T14:10:28.708Z,68.40
2018-04-12T14:12:56.961Z,70.70
2018-04-12T14:15:25.981Z,72.10
2018-04-12T14:17:54.233Z,71.90
2018-04-12T14:20:23.240Z,75.00
2018-04-12T14:22:51.496Z,75.30
2018-04-12T14:25:20.508Z,72.70
2018-04-12T14:27:48.760Z,72.50
2018-04-12T14:30:17.009Z,71.20
2018-04-12T14:32:45.265Z,70.00
2018-04-12T14:35:13.514Z,69.90
2018-04-12T14:37:41.772Z,70.90
2018-04-12T14:40:10.900Z,75.20
2018-04-12T14:42:39.152Z,75.30
2018-04-12T14:45:08.223Z,72.80
2018-04-12T14:47:36.434Z,72.80
2018-04-12T14:50:04.686Z,74.60
2018-04-12T14:52:33.710Z,71.50
2018-04-12T14:55:01.965Z,71.30
2018-04-12T14:57:30.991Z,65.80
2018-04-12T14:59:59.241Z,66.40
2018-04-12T15:02:27.508Z,63.80
2018-04-12T15:04:56.526Z,65.70
2018-04-12T15:07:24.780Z,65.50
2018-04-12T15:09:53.804Z,64.10
2018-04-12T15:12:22.057Z,64.00
2018-04-12T15:14:51.073Z,60.50
2018-04-12T15:17:19.323Z,60.10
2018-04-12T15:19:47.582Z,60.00
2018-04-12T15:22:16.606Z,58.80
2018-04-12T15:24:44.862Z,58.90
2018-04-12T15:27:13.879Z,60.50
2018-04-12T15:29:42.138Z,60.10
2018-04-12T15:32:10.427Z,58.60
2018-04-12T15:34:38.652Z,60.00
2018-04-12T15:37:06.906Z,59.90
2018-04-12T15:39:35.161Z,58.30
2018-04-12T15:42:03.414Z,58.00
2018-04-12T15:44:31.671Z,58.90
2018-04-12T15:47:00.681Z,58.10
2018-04-12T15:49:28.941Z,58.10
2018-04-12T15:51:57.953Z,59.50
2018-04-12T15:54:26.221Z,59.50
2018-04-12T15:56:55.236Z,58.50
2018-04-12T15:59:23.501Z,58.50
2018-04-12T16:01:51.761Z,56.20
2018-04-12T16:04:20.798Z,55.60
2018-04-12T16:06:49.045Z,55.50
2018-04-12T16:09:17.298Z,59.30
2018-04-12T16:11:46.322Z,58.50
2018-04-12T16:14:14.573Z,58.40
2018-04-12T16:16:43.597Z,57.20
2018-04-12T16:19:11.851Z,57.10
2018-04-12T16:21:40.114Z,54.40
2018-04-12T16:24:09.129Z,52.00
2018-04-12T16:26:37.389Z,52.00
2018-04-12T16:29:06.412Z,55.10
2018-04-12T16:31:34.664Z,54.90
2018-04-12T16:34:02.919Z,56.90
2018-04-12T16:36:31.179Z,55.20
2018-04-12T16:38:59.470Z,56.20
2018-04-12T16:41:27.688Z,54.80
2018-04-12T16:43:55.937Z,55.00
2018-04-12T16:46:24.964Z,54.80
2018-04-12T16:48:53.218Z,54.80
2018-04-12T16:51:21.477Z,54.60
2018-04-12T16:53:50.490Z,54.80
2018-04-12T16:56:18.755Z,54.60
2018-04-12T16:58:47.006Z,53.20
2018-04-12T17:01:15.248Z,52.40
2018-04-12T17:03:43.511Z,53.00
2018-04-12T17:06:11.759Z,53.20
2018-04-12T17:08:40.014Z,55.00
2018-04-12T17:11:09.027Z,57.40
2018-04-12T17:13:37.296Z,57.40
2018-04-12T17:16:06.305Z,63.70
2018-04-12T17:18:34.569Z,63.60
2018-04-12T17:21:03.588Z,63.50
2018-04-12T17:23:31.843Z,63.50
2018-04-12T17:26:00.101Z,63.40
2018-04-12T17:28:29.124Z,65.30
2018-04-12T17:30:57.546Z,65.20
2018-04-12T17:33:25.801Z,65.10
2018-04-12T17:35:54.050Z,67.50
2018-04-12T17:38:22.317Z,67.70
2018-04-12T17:40:50.568Z,71.10
2018-04-12T17:43:19.595Z,80.50
2018-04-12T17:45:47.840Z,80.10
2018-04-12T17:48:16.869Z,97.70
2018-04-12T17:50:45.121Z,97.60
2018-04-12T17:53:14.155Z,99.90
2018-04-12T17:55:42.410Z,99.90
2018-04-12T17:58:10.660Z,99.90
2018-04-12T18:00:39.696Z,99.90
2018-04-12T18:03:07.937Z,99.90
2018-04-12T18:05:36.200Z,99.90
2018-04-12T18:08:05.219Z,99.90
2018-04-12T18:10:33.477Z,99.90
2018-04-12T18:13:02.497Z,99.90
2018-04-12T18:15:30.770Z,99.90
2018-04-12T18:17:59.041Z,99.90
2018-04-12T18:20:27.305Z,99.90
2018-04-12T18:22:55.561Z,99.90
2018-04-12T18:25:24.593Z,99.90
2018-04-12T18:27:52.847Z,99.90
2018-04-12T18:30:21.108Z,99.90
2018-04-12T18:32:50.124Z,99.90
2018-04-12T18:35:18.380Z,99.90
2018-04-12T18:37:47.402Z,99.90
2018-04-12T18:40:15.676Z,99.90
2018-04-12T18:42:43.926Z,99.90
2018-04-12T18:45:12.947Z,99.90
2018-04-12T18:47:41.208Z,99.90
2018-04-12T18:50:09.468Z,99.90
2018-04-12T18:52:38.487Z,99.90
2018-04-12T18:55:06.740Z,99.90
2018-04-12T18:57:35.769Z,99.90
2018-04-12T19:00:04.016Z,99.90
2018-04-12T19:02:32.280Z,99.90
2018-04-12T19:05:01.288Z,99.90
2018-04-12T19:07:29.559Z,99.90
2018-04-12T19:09:58.569Z,99.90
2018-04-12T19:12:26.830Z,99.90
2018-04-12T19:14:55.844Z,99.90
2018-04-12T19:17:24.119Z,99.90
2018-04-12T19:19:52.370Z,99.90
2018-04-12T19:22:21.385Z,99.90
2018-04-12T19:24:49.640Z,99.90
2018-04-12T19:27:17.901Z,99.90
2018-04-12T19:29:46.924Z,99.90
2018-04-12T19:32:15.172Z,99.90
2018-04-12T19:34:44.193Z,99.90
2018-04-12T19:37:12.441Z,99.90
2018-04-12T19:39:41.461Z,99.90
2018-04-12T19:42:09.718Z,99.90
2018-04-12T19:44:38.742Z,99.90
2018-04-12T19:47:06.997Z,99.90
2018-04-12T19:49:35.251Z,99.90
2018-04-12T19:52:04.261Z,99.90
2018-04-12T19:54:32.521Z,99.90
2018-04-12T19:57:01.552Z,99.90
2018-04-12T19:59:29.812Z,99.90
2018-04-12T20:01:58.063Z,99.90
2018-04-12T20:04:27.319Z,99.90
2018-04-12T20:06:55.692Z,99.90
2018-04-12T20:09:24.062Z,99.90
2018-04-12T20:11:52.529Z,99.90
2018-04-12T20:14:20.869Z,99.90
2018-04-12T20:16:49.309Z,99.90
2018-04-12T20:19:17.815Z,99.90
2018-04-12T20:21:47.111Z,99.90
2018-04-12T20:24:16.552Z,99.90
2018-04-12T20:26:44.961Z,99.90
2018-04-12T20:29:13.652Z,99.90
2018-04-12T20:31:42.510Z,99.90
2018-04-12T20:34:11.100Z,99.90
2018-04-12T20:36:39.775Z,99.90
2018-04-12T20:39:08.476Z,99.90
2018-04-12T20:41:37.060Z,99.90
2018-04-12T20:44:05.664Z,99.90
2018-04-12T20:46:33.934Z,99.90
2018-04-12T20:49:02.196Z,99.90
2018-04-12T20:51:30.458Z,99.90
2018-04-12T20:53:58.710Z,99.90
2018-04-12T20:56:27.745Z,99.90
2018-04-12T20:58:56.009Z,99.90
2018-04-12T21:01:24.261Z,99.90
2018-04-12T21:03:53.293Z,99.90
2018-04-12T21:06:21.572Z,99.90
2018-04-12T21:08:49.842Z,99.90
2018-04-12T21:11:18.095Z,99.90
2018-04-12T21:13:46.357Z,99.90
2018-04-12T21:16:15.385Z,99.90
2018-04-12T21:18:43.637Z,99.90
2018-04-12T21:21:11.903Z,99.90
2018-04-12T21:23:40.939Z,99.90
2018-04-12T21:26:09.195Z,99.90
2018-04-12T21:28:37.447Z,99.90
2018-04-12T21:31:06.474Z,99.90
2018-04-12T21:33:34.724Z,99.90
2018-04-12T21:36:03.003Z,99.90
2018-04-12T21:38:32.026Z,99.90
2018-04-12T21:41:00.285Z,99.90
2018-04-12T21:43:28.537Z,99.90
2018-04-12T21:45:57.561Z,99.90
2018-04-12T21:48:25.812Z,99.90
2018-04-12T21:50:54.848Z,99.90
2018-04-12T21:53:23.102Z,99.90
2018-04-12T21:55:51.365Z,99.90
2018-04-12T21:58:19.621Z,99.90
2018-04-12T22:00:48.662Z,99.90
2018-04-12T22:03:16.911Z,99.90
2018-04-12T22:05:45.166Z,99.90
2018-04-12T22:08:14.182Z,99.90
2018-04-12T22:10:42.448Z,99.90
2018-04-12T22:13:11.469Z,99.90
2018-04-12T22:15:39.716Z,99.90
2018-04-12T22:18:07.981Z,99.90
2018-04-12T22:20:37.003Z,99.90
2018-04-12T22:23:05.261Z,99.90
2018-04-12T22:25:34.282Z,99.90
2018-04-12T22:28:02.538Z,99.90
2018-04-12T22:30:30.788Z,99.90
2018-04-12T22:32:59.821Z,99.90
2018-04-12T22:35:28.074Z,99.90
2018-04-12T22:37:57.101Z,99.90
2018-04-12T22:40:25.349Z,99.90
2018-04-12T22:42:53.633Z,99.90
2018-04-12T22:45:21.887Z,99.90
2018-04-12T22:47:50.907Z,99.90
2018-04-12T22:50:19.172Z,99.90
2018-04-12T22:52:48.187Z,99.90
2018-04-12T22:55:16.444Z,99.90
2018-04-12T22:57:44.693Z,99.90
2018-04-12T23:00:13.723Z,99.90
2018-04-12T23:05:15.566Z,99.90
2018-04-12T23:07:44.580Z,99.90
2018-04-12T23:10:12.855Z,99.90
2018-04-12T23:12:41.865Z,99.90
2018-04-12T23:15:10.129Z,99.90
2018-04-12T23:17:38.385Z,99.90
2018-04-12T23:20:07.410Z,99.90
2018-04-12T23:22:35.671Z,99.90
2018-04-12T23:25:03.922Z,99.90
2018-04-12T23:27:32.955Z,99.90
2018-04-12T23:30:01.205Z,99.90
2018-04-12T23:32:30.249Z,99.90
2018-04-12T23:34:58.500Z,99.90
2018-04-12T23:37:26.761Z,99.90
2018-04-12T23:39:55.021Z,99.90
2018-04-12T23:42:24.049Z,99.90
2018-04-12T23:44:52.303Z,99.90
2018-04-12T23:47:20.572Z,99.90
2018-04-12T23:49:49.589Z,99.90
2018-04-12T23:52:17.849Z,99.90
2018-04-12T23:54:46.103Z,99.90
2018-04-12T23:57:15.153Z,99.90
2018-04-12T23:59:43.407Z,99.90
